sensor_id;sensor_type;location;lat;lon;timestamp;temperature;humidity
9095;DHT22;4583;49.796;9.902;2023-05-02T00:06:29;12.20;86.00
9095;DHT22;4583;49.796;9.902;2023-05-02T00:16:32;12.00;86.80
9095;DHT22;4583;49.796;9.902;2023-05-02T00:26:33;12.00;88.10
9095;DHT22;4583;49.796;9.902;2023-05-02T00:36:35;11.80;88.40
9095;DHT22;4583;49.796;9.902;2023-05-02T00:46:37;11.80;89.00
9095;DHT22;4583;49.796;9.902;2023-05-02T00:56:39;11.80;89.90
9095;DHT22;4583;49.796;9.902;2023-05-02T01:16:44;11.60;90.80
9095;DHT22;4583;49.796;9.902;2023-05-02T01:37:05;11.60;91.10
9095;DHT22;4583;49.796;9.902;2023-05-02T01:47:08;11.60;91.60
9095;DHT22;4583;49.796;9.902;2023-05-02T01:57:11;11.60;91.90
9095;DHT22;4583;49.796;9.902;2023-05-02T02:07:13;11.70;92.10
9095;DHT22;4583;49.796;9.902;2023-05-02T02:17:39;11.70;92.10
9095;DHT22;4583;49.796;9.902;2023-05-02T02:27:41;11.60;92.40
9095;DHT22;4583;49.796;9.902;2023-05-02T02:37:51;11.70;92.60
9095;DHT22;4583;49.796;9.902;2023-05-02T02:48:14;11.80;92.50
9095;DHT22;4583;49.796;9.902;2023-05-02T02:59:11;11.90;92.60
9095;DHT22;4583;49.796;9.902;2023-05-02T03:08:52;12.10;92.70
9095;DHT22;4583;49.796;9.902;2023-05-02T03:18:54;12.10;92.70
9095;DHT22;4583;49.796;9.902;2023-05-02T03:28:56;12.20;92.70
9095;DHT22;4583;49.796;9.902;2023-05-02T03:38:57;12.20;92.90
9095;DHT22;4583;49.796;9.902;2023-05-02T03:48:59;12.20;92.70
9095;DHT22;4583;49.796;9.902;2023-05-02T03:59:01;12.20;92.90
9095;DHT22;4583;49.796;9.902;2023-05-02T04:09:02;12.30;93.20
9095;DHT22;4583;49.796;9.902;2023-05-02T04:19:04;12.30;93.20
9095;DHT22;4583;49.796;9.902;2023-05-02T04:29:06;12.50;93.30
9095;DHT22;4583;49.796;9.902;2023-05-02T04:39:08;12.50;93.10
9095;DHT22;4583;49.796;9.902;2023-05-02T04:49:10;12.70;93.10
9095;DHT22;4583;49.796;9.902;2023-05-02T04:59:12;12.70;93.10
9095;DHT22;4583;49.796;9.902;2023-05-02T05:09:14;12.70;93.30
9095;DHT22;4583;49.796;9.902;2023-05-02T05:19:16;12.80;93.10
9095;DHT22;4583;49.796;9.902;2023-05-02T05:29:17;12.80;93.40
9095;DHT22;4583;49.796;9.902;2023-05-02T05:39:19;12.80;93.60
9095;DHT22;4583;49.796;9.902;2023-05-02T05:49:21;13.00;93.70
9095;DHT22;4583;49.796;9.902;2023-05-02T05:59:24;13.00;93.60
9095;DHT22;4583;49.796;9.902;2023-05-02T06:09:26;13.00;93.90
9095;DHT22;4583;49.796;9.902;2023-05-02T06:19:28;13.00;94.20
9095;DHT22;4583;49.796;9.902;2023-05-02T06:29:29;13.00;94.60
9095;DHT22;4583;49.796;9.902;2023-05-02T06:39:32;13.10;94.90
9095;DHT22;4583;49.796;9.902;2023-05-02T06:49:34;13.40;94.80
9095;DHT22;4583;49.796;9.902;2023-05-02T06:59:35;13.60;94.90
9095;DHT22;4583;49.796;9.902;2023-05-02T07:09:37;13.90;94.70
9095;DHT22;4583;49.796;9.902;2023-05-02T07:19:42;14.10;94.50
9095;DHT22;4583;49.796;9.902;2023-05-02T07:29:46;14.10;94.00
9095;DHT22;4583;49.796;9.902;2023-05-02T07:39:49;14.00;93.90
9095;DHT22;4583;49.796;9.902;2023-05-02T07:49:51;14.10;94.10
9095;DHT22;4583;49.796;9.902;2023-05-02T07:59:53;14.10;93.70
9095;DHT22;4583;49.796;9.902;2023-05-02T08:09:57;14.30;93.60
9095;DHT22;4583;49.796;9.902;2023-05-02T08:19:59;14.80;93.00
9095;DHT22;4583;49.796;9.902;2023-05-02T08:30:05;15.30;92.50
9095;DHT22;4583;49.796;9.902;2023-05-02T08:40:11;15.80;90.90
9095;DHT22;4583;49.796;9.902;2023-05-02T09:00:17;15.90;90.90
9095;DHT22;4583;49.796;9.902;2023-05-02T09:10:20;17.00;87.20
9095;DHT22;4583;49.796;9.902;2023-05-02T09:20:22;17.10;84.80
9095;DHT22;4583;49.796;9.902;2023-05-02T09:30:25;17.10;82.20
9095;DHT22;4583;49.796;9.902;2023-05-02T09:40:26;17.30;80.20
9095;DHT22;4583;49.796;9.902;2023-05-02T09:50:37;17.60;78.40
9095;DHT22;4583;49.796;9.902;2023-05-02T10:00:41;17.90;74.40
9095;DHT22;4583;49.796;9.902;2023-05-02T10:10:55;17.70;72.90
9095;DHT22;4583;49.796;9.902;2023-05-02T10:20:59;17.70;72.70
9095;DHT22;4583;49.796;9.902;2023-05-02T10:31:02;17.30;71.60
9095;DHT22;4583;49.796;9.902;2023-05-02T10:41:12;17.60;71.60
9095;DHT22;4583;49.796;9.902;2023-05-02T10:51:29;17.70;68.80
9095;DHT22;4583;49.796;9.902;2023-05-02T11:01:32;17.70;69.40
9095;DHT22;4583;49.796;9.902;2023-05-02T11:11:41;17.90;69.80
9095;DHT22;4583;49.796;9.902;2023-05-02T11:21:44;17.70;66.80
9095;DHT22;4583;49.796;9.902;2023-05-02T11:31:52;17.80;66.60
9095;DHT22;4583;49.796;9.902;2023-05-02T11:41:55;18.60;65.40
9095;DHT22;4583;49.796;9.902;2023-05-02T11:51:57;18.60;65.00
9095;DHT22;4583;49.796;9.902;2023-05-02T12:01:59;18.50;65.50
9095;DHT22;4583;49.796;9.902;2023-05-02T12:12:02;18.40;64.70
9095;DHT22;4583;49.796;9.902;2023-05-02T12:22:04;18.40;65.30
9095;DHT22;4583;49.796;9.902;2023-05-02T12:32:06;18.60;65.50
9095;DHT22;4583;49.796;9.902;2023-05-02T13:02:14;19.10;63.50
9095;DHT22;4583;49.796;9.902;2023-05-02T13:12:15;19.30;59.60
9095;DHT22;4583;49.796;9.902;2023-05-02T14:22:32;19.60;59.90
9095;DHT22;4583;49.796;9.902;2023-05-02T14:32:34;20.90;51.80
9095;DHT22;4583;49.796;9.902;2023-05-02T14:42:36;20.00;54.10
9095;DHT22;4583;49.796;9.902;2023-05-02T14:52:37;19.80;55.30
9095;DHT22;4583;49.796;9.902;2023-05-02T15:02:39;19.60;56.20
9095;DHT22;4583;49.796;9.902;2023-05-02T15:12:41;18.90;57.40
9095;DHT22;4583;49.796;9.902;2023-05-02T15:22:43;19.10;56.50
9095;DHT22;4583;49.796;9.902;2023-05-02T15:32:45;19.90;56.00
9095;DHT22;4583;49.796;9.902;2023-05-02T15:42:47;21.30;54.90
9095;DHT22;4583;49.796;9.902;2023-05-02T15:52:49;24.50;47.40
9095;DHT22;4583;49.796;9.902;2023-05-02T16:02:51;24.40;46.90
9095;DHT22;4583;49.796;9.902;2023-05-02T16:12:53;27.10;40.20
9095;DHT22;4583;49.796;9.902;2023-05-02T16:22:55;26.40;41.20
9095;DHT22;4583;49.796;9.902;2023-05-02T16:32:56;24.50;41.50
9095;DHT22;4583;49.796;9.902;2023-05-02T16:53:00;23.60;42.80
9095;DHT22;4583;49.796;9.902;2023-05-02T17:03:02;23.80;46.30
9095;DHT22;4583;49.796;9.902;2023-05-02T17:13:06;23.80;46.90
9095;DHT22;4583;49.796;9.902;2023-05-02T18:13:18;17.30;57.40
9095;DHT22;4583;49.796;9.902;2023-05-02T18:23:20;17.20;58.00
9095;DHT22;4583;49.796;9.902;2023-05-02T18:33:22;16.60;59.40
9095;DHT22;4583;49.796;9.902;2023-05-02T18:43:23;16.20;60.30
9095;DHT22;4583;49.796;9.902;2023-05-02T18:53:25;16.40;62.50
9095;DHT22;4583;49.796;9.902;2023-05-02T19:03:27;15.60;62.30
9095;DHT22;4583;49.796;9.902;2023-05-02T19:13:29;15.50;63.10
9095;DHT22;4583;49.796;9.902;2023-05-02T19:23:31;15.40;63.90
9095;DHT22;4583;49.796;9.902;2023-05-02T19:33:33;15.20;64.70
9095;DHT22;4583;49.796;9.902;2023-05-02T19:43:35;14.90;65.70
9095;DHT22;4583;49.796;9.902;2023-05-02T19:53:37;14.70;66.40
9095;DHT22;4583;49.796;9.902;2023-05-02T20:03:38;14.60;67.30
9095;DHT22;4583;49.796;9.902;2023-05-02T20:13:40;14.20;67.80
9095;DHT22;4583;49.796;9.902;2023-05-02T20:23:42;14.20;68.50
9095;DHT22;4583;49.796;9.902;2023-05-02T20:33:45;14.00;69.10
9095;DHT22;4583;49.796;9.902;2023-05-02T20:43:47;13.80;69.40
9095;DHT22;4583;49.796;9.902;2023-05-02T20:53:48;13.60;69.10
9095;DHT22;4583;49.796;9.902;2023-05-02T21:03:50;13.40;69.90
9095;DHT22;4583;49.796;9.902;2023-05-02T21:13:52;13.30;70.50
9095;DHT22;4583;49.796;9.902;2023-05-02T21:23:53;13.10;70.50
9095;DHT22;4583;49.796;9.902;2023-05-02T21:33:55;13.00;70.70
9095;DHT22;4583;49.796;9.902;2023-05-02T21:43:56;13.00;71.20
9095;DHT22;4583;49.796;9.902;2023-05-02T21:53:58;12.90;71.70
9095;DHT22;4583;49.796;9.902;2023-05-02T22:04:00;12.80;72.00
9095;DHT22;4583;49.796;9.902;2023-05-02T22:14:02;12.80;72.40
9095;DHT22;4583;49.796;9.902;2023-05-02T22:24:04;12.40;72.60
9095;DHT22;4583;49.796;9.902;2023-05-02T22:34:05;12.40;73.20
9095;DHT22;4583;49.796;9.902;2023-05-02T22:44:07;12.30;73.90
9095;DHT22;4583;49.796;9.902;2023-05-02T22:54:09;11.90;75.80
9095;DHT22;4583;49.796;9.902;2023-05-02T23:04:11;11.80;76.30
9095;DHT22;4583;49.796;9.902;2023-05-02T23:14:13;11.80;77.10
9095;DHT22;4583;49.796;9.902;2023-05-02T23:24:15;11.70;77.50
9095;DHT22;4583;49.796;9.902;2023-05-02T23:34:17;11.60;78.00
9095;DHT22;4583;49.796;9.902;2023-05-02T23:44:19;11.40;78.60
9095;DHT22;4583;49.796;9.902;2023-05-02T23:54:20;11.30;79.50
